createdAt,value
2023-04-11T00:01:51.253Z,19.77
2023-04-11T00:06:53.499Z,19.80
2023-04-11T00:11:56.825Z,18.83
2023-04-11T00:17:01.069Z,18.40
2023-04-11T00:22:04.995Z,20.30
2023-04-11T00:27:07.209Z,18.57
2023-04-11T00:32:09.428Z,21.07
2023-04-11T00:37:12.814Z,21.60
2023-04-11T00:42:14.893Z,20.92
2023-04-11T00:47:17.031Z,17.77
2023-04-11T00:52:19.433Z,19.23
2023-04-11T00:57:22.812Z,22.00
2023-04-11T01:02:25.207Z,20.87
2023-04-11T01:07:28.390Z,20.90
2023-04-11T01:12:30.767Z,21.33
2023-04-11T01:17:33.914Z,20.80
2023-04-11T01:22:38.240Z,20.60
2023-04-11T01:27:42.276Z,18.70
2023-04-11T01:32:44.464Z,20.85
2023-04-11T01:37:46.554Z,19.70
2023-04-11T01:42:49.197Z,19.08
2023-04-11T01:47:52.763Z,21.02
2023-04-11T01:52:54.944Z,21.67
2023-04-11T01:57:57.012Z,23.05
2023-04-11T02:02:59.233Z,18.62
2023-04-11T02:08:01.334Z,21.23
2023-04-11T02:13:03.559Z,20.63
2023-04-11T02:18:06.940Z,23.38
2023-04-11T02:23:09.088Z,22.05
2023-04-11T02:28:11.251Z,23.40
2023-04-11T02:33:13.889Z,21.20
2023-04-11T02:38:15.994Z,23.00
2023-04-11T02:43:18.069Z,22.00
2023-04-11T02:48:20.296Z,22.40
2023-04-11T02:53:22.413Z,24.50
2023-04-11T02:58:26.026Z,23.57
2023-04-11T03:03:28.143Z,24.13
2023-04-11T03:08:30.402Z,22.70
2023-04-11T03:13:32.952Z,24.27
2023-04-11T03:18:35.382Z,27.73
2023-04-11T03:23:38.945Z,24.25
2023-04-11T03:28:41.042Z,23.02
2023-04-11T03:33:44.981Z,23.90
2023-04-11T03:38:47.057Z,21.83
2023-04-11T03:43:49.107Z,25.35
2023-04-11T03:48:51.349Z,22.53
2023-04-11T03:53:53.555Z,27.27
2023-04-11T03:58:56.081Z,24.83
2023-04-11T04:04:00.681Z,25.35
2023-04-11T04:09:04.294Z,23.93
2023-04-11T04:14:06.372Z,22.23
2023-04-11T04:19:08.422Z,23.45
2023-04-11T04:24:12.321Z,20.23
2023-04-11T04:29:14.402Z,21.67
2023-04-11T04:34:21.986Z,23.10
2023-04-11T04:39:25.466Z,26.03
2023-04-11T04:44:27.764Z,24.50
2023-04-11T04:49:30.333Z,22.55
2023-04-11T04:54:32.932Z,22.75
2023-04-11T04:59:35.049Z,24.83
2023-04-11T05:04:37.345Z,23.80
2023-04-11T05:09:39.741Z,22.85
2023-04-11T05:14:42.221Z,22.27
2023-04-11T05:19:44.504Z,22.35
2023-04-11T05:24:46.582Z,23.20
2023-04-11T05:29:48.647Z,24.67
2023-04-11T05:34:58.178Z,19.47
2023-04-11T05:40:01.283Z,17.73
2023-04-11T05:45:03.505Z,19.80
2023-04-11T05:50:06.298Z,22.90
2023-04-11T05:55:09.348Z,22.62
2023-04-11T06:00:13.068Z,21.65
2023-04-11T06:05:16.724Z,21.57
2023-04-11T06:10:19.049Z,20.48
2023-04-11T06:15:22.578Z,19.70
2023-04-11T06:20:25.311Z,24.30
2023-04-11T06:25:27.450Z,20.07
2023-04-11T06:30:29.620Z,21.62
2023-04-11T06:35:31.740Z,24.33
2023-04-11T06:40:34.040Z,21.73
2023-04-11T06:45:36.163Z,23.05
2023-04-11T06:50:41.817Z,21.00
2023-04-11T06:55:43.872Z,19.03
2023-04-11T07:00:46.132Z,21.20
2023-04-11T07:05:48.337Z,18.90
2023-04-11T07:10:50.812Z,19.80
2023-04-11T07:15:52.906Z,21.03
2023-04-11T07:20:55.489Z,23.67
2023-04-11T07:25:57.789Z,21.80
2023-04-11T07:30:59.869Z,20.77
2023-04-11T07:36:01.951Z,21.83
2023-04-11T07:41:05.662Z,21.42
2023-04-11T07:46:07.973Z,21.20
2023-04-11T07:51:10.653Z,18.70
2023-04-11T07:56:13.571Z,19.70
2023-04-11T08:01:23.946Z,21.50
2023-04-11T08:06:26.585Z,16.10
2023-04-11T08:11:28.644Z,10.48
2023-04-11T08:16:30.941Z,9.65
2023-04-11T08:21:33.490Z,9.80
2023-04-11T08:26:35.940Z,14.20
2023-04-11T08:31:46.922Z,13.98
2023-04-11T08:36:49.026Z,15.67
2023-04-11T08:41:51.459Z,13.62
2023-04-11T08:46:53.652Z,14.05
2023-04-11T08:51:56.355Z,14.27
2023-04-11T08:56:58.400Z,15.10
2023-04-11T09:02:09.367Z,12.25
2023-04-11T09:07:11.984Z,13.10
2023-04-11T09:12:14.160Z,13.80
2023-04-11T09:17:17.140Z,14.63
2023-04-11T09:22:19.309Z,17.92
2023-04-11T09:27:24.512Z,14.80
2023-04-11T09:32:34.469Z,15.68
2023-04-11T09:37:57.806Z,17.55
2023-04-11T09:43:04.226Z,16.63
2023-04-11T09:48:06.419Z,19.93
2023-04-11T09:53:11.056Z,15.40
2023-04-11T09:58:13.494Z,15.93
2023-04-11T10:03:16.739Z,16.50
2023-04-11T10:08:32.791Z,15.07
2023-04-11T10:13:39.341Z,19.65
2023-04-11T10:18:50.655Z,14.97
2023-04-11T10:24:20.175Z,16.62
2023-04-11T10:29:28.127Z,15.23
2023-04-11T10:34:31.886Z,16.10
2023-04-11T10:40:00.752Z,16.23
2023-04-11T10:45:14.960Z,18.55
2023-04-11T10:50:26.257Z,17.02
2023-04-11T10:55:30.050Z,16.67
2023-04-11T11:01:00.123Z,16.42
2023-04-11T11:06:07.660Z,14.65
2023-04-11T11:11:11.512Z,16.97
2023-04-11T11:16:16.618Z,20.25
2023-04-11T11:21:27.205Z,16.55
2023-04-11T11:26:40.936Z,14.40
2023-04-11T11:31:48.100Z,15.53
2023-04-11T11:36:50.639Z,14.77
2023-04-11T11:41:53.576Z,15.00
2023-04-11T11:47:09.280Z,15.33
2023-04-11T11:52:12.149Z,14.95
2023-04-11T11:57:23.243Z,15.32
2023-04-11T12:02:29.234Z,15.10
2023-04-11T12:07:33.326Z,12.25
2023-04-11T12:12:37.661Z,10.93
2023-04-11T12:17:40.874Z,15.03
2023-04-11T12:22:43.176Z,11.50
2023-04-11T12:27:47.157Z,11.20
2023-04-11T12:32:49.402Z,9.93
2023-04-11T12:37:51.605Z,9.53
2023-04-11T12:42:57.164Z,11.23
2023-04-11T12:47:59.541Z,10.57
2023-04-11T12:53:01.666Z,9.83
2023-04-11T12:58:04.279Z,10.45
2023-04-11T13:03:06.750Z,12.55
2023-04-11T13:08:09.135Z,10.03
2023-04-11T13:13:17.902Z,9.93
2023-04-11T13:18:20.937Z,12.07
2023-04-11T13:23:22.977Z,10.02
2023-04-11T13:28:25.142Z,10.50
2023-04-11T13:33:27.281Z,10.48
2023-04-11T13:38:29.454Z,12.45
2023-04-11T13:43:31.643Z,9.23
2023-04-11T13:48:33.765Z,9.73
2023-04-11T13:53:36.064Z,7.97
2023-04-11T13:58:39.007Z,9.20
2023-04-11T14:03:43.089Z,7.40
2023-04-11T14:08:47.348Z,7.40
2023-04-11T14:13:50.401Z,5.65
2023-04-11T14:18:52.542Z,7.30
2023-04-11T14:23:55.108Z,6.15
2023-04-11T14:28:57.440Z,6.22
2023-04-11T14:33:59.689Z,7.43
2023-04-11T14:39:02.071Z,11.48
2023-04-11T14:44:04.180Z,6.80
2023-04-11T14:49:07.418Z,9.13
2023-04-11T14:54:09.534Z,7.83
2023-04-11T14:59:11.782Z,6.32
2023-04-11T15:04:14.588Z,4.30
2023-04-11T15:09:20.158Z,3.63
2023-04-11T15:14:29.232Z,3.50
2023-04-11T15:19:31.548Z,3.42
2023-04-11T15:24:33.609Z,5.20
2023-04-11T15:29:36.485Z,5.28
2023-04-11T15:34:40.254Z,7.05
2023-04-11T15:39:42.349Z,8.17
2023-04-11T15:44:44.971Z,6.17
2023-04-11T15:49:47.181Z,6.10
2023-04-11T15:54:49.252Z,5.60
2023-04-11T15:59:52.555Z,6.03
2023-04-11T16:04:55.861Z,4.97
2023-04-11T16:09:58.232Z,5.97
2023-04-11T16:15:00.440Z,4.97
2023-04-11T16:20:04.561Z,6.25
2023-04-11T16:25:07.421Z,5.82
2023-04-11T16:30:09.852Z,8.57
2023-04-11T16:35:12.045Z,7.53
2023-04-11T16:40:14.386Z,5.60
2023-04-11T16:45:16.786Z,6.68
2023-04-11T16:50:19.011Z,7.13
2023-04-11T16:55:21.178Z,8.07
2023-04-11T17:00:24.085Z,6.80
2023-04-11T17:05:26.172Z,7.70
2023-04-11T17:10:28.252Z,6.22
2023-04-11T17:15:30.769Z,5.53
2023-04-11T17:20:32.880Z,8.13
2023-04-11T17:25:34.982Z,6.70
2023-04-11T17:30:37.832Z,6.40
2023-04-11T17:35:40.042Z,7.90
2023-04-11T17:40:42.411Z,7.97
2023-04-11T17:45:44.571Z,8.00
2023-04-11T17:50:46.668Z,7.87
2023-04-11T17:55:49.762Z,9.07
2023-04-11T18:00:56.023Z,6.18
2023-04-11T18:05:59.869Z,6.87
2023-04-11T18:11:03.432Z,7.87
2023-04-11T18:16:05.778Z,7.40
2023-04-11T18:21:08.232Z,9.52
2023-04-11T18:26:10.467Z,9.25
2023-04-11T18:31:12.731Z,11.57
2023-04-11T18:36:14.972Z,12.20
2023-04-11T18:41:18.139Z,10.75
2023-04-11T18:46:20.824Z,13.00
2023-04-11T18:51:23.212Z,11.88
2023-04-11T18:56:26.699Z,13.05
2023-04-11T19:01:29.346Z,12.73
2023-04-11T19:06:31.505Z,12.50
2023-04-11T19:11:36.089Z,15.90
2023-04-11T19:16:38.336Z,11.75
2023-04-11T19:21:41.916Z,12.90
2023-04-11T19:26:44.133Z,12.32
2023-04-11T19:31:46.293Z,11.68
2023-04-11T19:36:48.425Z,11.80
2023-04-11T19:41:51.278Z,11.20
2023-04-11T19:46:53.372Z,10.85
2023-04-11T19:51:55.737Z,10.77
2023-04-11T19:56:57.877Z,10.07
2023-04-11T20:02:01.696Z,10.88
2023-04-11T20:07:04.303Z,10.13
2023-04-11T20:12:06.718Z,11.53
2023-04-11T20:17:09.100Z,11.10
2023-04-11T20:22:13.756Z,12.80
2023-04-11T20:27:16.394Z,9.47
2023-04-11T20:32:19.144Z,13.07
2023-04-11T20:37:22.582Z,8.98
2023-04-11T20:42:25.856Z,8.90
2023-04-11T20:47:27.949Z,7.67
2023-04-11T20:52:31.177Z,6.90
2023-04-11T20:57:36.282Z,6.22
2023-04-11T21:02:38.817Z,5.70
2023-04-11T21:07:42.237Z,6.22
2023-04-11T21:12:51.097Z,4.82
2023-04-11T21:17:53.610Z,3.73
2023-04-11T21:22:55.933Z,2.70
2023-04-11T21:27:58.070Z,2.00
2023-04-11T21:33:00.363Z,2.60
2023-04-11T21:38:02.458Z,2.87
2023-04-11T21:43:05.643Z,3.17
2023-04-11T21:48:07.766Z,2.78
2023-04-11T21:53:09.913Z,3.20
2023-04-11T21:58:22.285Z,2.85
2023-04-11T22:03:30.782Z,2.05
2023-04-11T22:08:33.156Z,4.30
2023-04-11T22:13:39.758Z,2.10
2023-04-11T22:18:47.484Z,2.50
2023-04-11T22:23:57.286Z,2.27
2023-04-11T22:29:03.247Z,5.10
2023-04-11T22:34:08.128Z,3.65
2023-04-11T22:39:10.361Z,4.22
2023-04-11T22:44:12.395Z,3.47
2023-04-11T22:49:14.716Z,3.45
2023-04-11T22:54:16.779Z,3.22
2023-04-11T22:59:18.843Z,4.07
2023-04-11T23:04:21.502Z,5.00
2023-04-11T23:09:23.829Z,4.95
2023-04-11T23:14:31.132Z,3.97
2023-04-11T23:19:34.138Z,4.10
2023-04-11T23:24:36.290Z,3.85
2023-04-11T23:29:39.149Z,3.78
2023-04-11T23:34:41.576Z,5.00
2023-04-11T23:39:43.719Z,4.03
2023-04-11T23:44:46.505Z,4.15
2023-04-11T23:49:48.553Z,3.83
2023-04-11T23:54:50.844Z,3.00
2023-04-11T23:59:52.944Z,4.30
